createdAt,value
2023-06-26T00:00:29.288Z,95080.00
2023-06-26T00:01:29.338Z,95082.00
2023-06-26T00:02:29.291Z,95084.00
2023-06-26T00:03:29.325Z,95086.00
2023-06-26T00:04:29.289Z,95088.00
2023-06-26T00:05:29.323Z,95090.00
2023-06-26T00:06:29.296Z,95088.00
2023-06-26T00:07:29.317Z,95088.00
2023-06-26T00:08:29.272Z,95088.00
2023-06-26T00:09:29.256Z,95086.00
2023-06-26T00:10:29.291Z,95082.00
2023-06-26T00:11:29.274Z,95084.00
2023-06-26T00:12:29.279Z,95084.00
2023-06-26T00:13:29.294Z,95086.00
2023-06-26T00:14:29.314Z,95090.00
2023-06-26T00:15:29.233Z,95088.00
2023-06-26T00:16:29.244Z,95088.00
2023-06-26T00:17:29.260Z,95090.00
2023-06-26T00:18:29.246Z,95091.00
2023-06-26T00:19:29.251Z,95093.00
2023-06-26T00:20:29.222Z,95093.00
2023-06-26T00:21:29.222Z,95093.00
2023-06-26T00:22:29.258Z,95095.00
2023-06-26T00:23:29.241Z,95093.00
2023-06-26T00:24:29.277Z,95097.00
2023-06-26T00:25:29.229Z,95093.00
2023-06-26T00:26:29.227Z,95099.00
2023-06-26T00:27:29.221Z,95097.00
2023-06-26T00:28:29.198Z,95095.00
2023-06-26T00:29:29.201Z,95099.00
2023-06-26T00:30:29.178Z,95099.00
2023-06-26T00:31:29.241Z,95097.00
2023-06-26T00:32:29.179Z,95099.00
2023-06-26T00:33:29.251Z,95097.00
2023-06-26T00:34:29.240Z,95099.00
2023-06-26T00:35:29.265Z,95099.00
2023-06-26T00:36:29.255Z,95097.00
2023-06-26T00:37:29.248Z,95097.00
2023-06-26T00:38:29.298Z,95099.00
2023-06-26T00:39:29.281Z,95097.00
2023-06-26T00:40:29.311Z,95099.00
2023-06-26T00:41:29.296Z,95097.00
2023-06-26T00:42:29.285Z,95097.00
2023-06-26T00:43:29.302Z,95097.00
2023-06-26T00:44:29.300Z,95099.00
2023-06-26T00:45:38.240Z,95101.00
2023-06-26T00:46:30.287Z,95101.00
2023-06-26T00:47:29.356Z,95097.00
2023-06-26T00:48:29.282Z,95099.00
2023-06-26T00:49:29.255Z,95097.00
2023-06-26T00:50:29.259Z,95097.00
2023-06-26T00:51:29.242Z,95099.00
2023-06-26T00:52:29.315Z,95095.00
2023-06-26T00:53:29.259Z,95099.00
2023-06-26T00:54:29.256Z,95099.00
2023-06-26T00:55:29.234Z,95099.00
2023-06-26T00:56:29.238Z,95101.00
2023-06-26T00:57:29.249Z,95103.00
2023-06-26T00:58:29.232Z,95105.00
2023-06-26T00:59:29.207Z,95103.00
2023-06-26T01:00:29.221Z,95103.00
2023-06-26T01:01:29.166Z,95105.00
2023-06-26T01:02:29.247Z,95105.00
2023-06-26T01:03:29.218Z,95105.00
2023-06-26T01:04:29.171Z,95105.00
2023-06-26T01:05:29.169Z,95107.00
2023-06-26T01:06:29.172Z,95105.00
2023-06-26T01:07:29.204Z,95103.00
2023-06-26T01:08:29.140Z,95103.00
2023-06-26T01:09:29.125Z,95107.00
2023-06-26T01:10:29.374Z,95105.00
2023-06-26T01:11:29.103Z,95107.00
2023-06-26T01:12:29.110Z,95107.00
2023-06-26T01:13:29.096Z,95107.00
2023-06-26T01:14:29.112Z,95107.00
2023-06-26T01:15:29.102Z,95107.00
2023-06-26T01:16:29.089Z,95109.00
2023-06-26T01:17:29.129Z,95111.00
2023-06-26T01:18:29.050Z,95113.00
2023-06-26T01:19:29.083Z,95111.00
2023-06-26T01:20:29.048Z,95113.00
2023-06-26T01:21:29.081Z,95113.00
2023-06-26T01:22:29.067Z,95113.00
2023-06-26T01:23:29.036Z,95113.00
2023-06-26T01:24:29.019Z,95115.00
2023-06-26T01:25:29.016Z,95109.00
2023-06-26T01:26:29.009Z,95111.00
2023-06-26T01:27:29.022Z,95109.00
2023-06-26T01:28:29.025Z,95111.00
2023-06-26T01:29:29.032Z,95111.00
2023-06-26T01:30:29.045Z,95113.00
2023-06-26T01:31:29.065Z,95111.00
2023-06-26T01:32:29.067Z,95107.00
2023-06-26T01:33:29.070Z,95111.00
2023-06-26T01:34:29.067Z,95109.00
2023-06-26T01:35:29.116Z,95107.00
2023-06-26T01:36:29.154Z,95109.00
2023-06-26T01:37:29.166Z,95109.00
2023-06-26T01:38:29.202Z,95109.00
2023-06-26T01:39:29.214Z,95109.00
2023-06-26T01:40:29.284Z,95111.00
2023-06-26T01:41:29.286Z,95109.00
2023-06-26T01:42:29.345Z,95111.00
2023-06-26T01:43:29.339Z,95109.00
2023-06-26T01:44:29.388Z,95107.00
2023-06-26T01:45:29.423Z,95109.00
2023-06-26T01:46:29.569Z,95109.00
2023-06-26T01:47:29.554Z,95109.00
2023-06-26T01:48:29.498Z,95107.00
2023-06-26T01:49:29.521Z,95109.00
2023-06-26T01:50:29.575Z,95111.00
2023-06-26T01:51:29.582Z,95113.00
2023-06-26T01:52:29.658Z,95111.00
2023-06-26T01:53:29.679Z,95115.00
2023-06-26T01:54:29.690Z,95111.00
2023-06-26T01:55:29.667Z,95111.00
2023-06-26T01:56:29.685Z,95111.00
2023-06-26T01:57:29.703Z,95113.00
2023-06-26T01:58:29.787Z,95115.00
2023-06-26T01:59:29.780Z,95113.00
2023-06-26T02:00:29.811Z,95113.00
2023-06-26T02:01:29.852Z,95115.00
2023-06-26T02:02:29.895Z,95117.00
2023-06-26T02:03:29.970Z,95115.00
2023-06-26T02:04:29.872Z,95117.00
2023-06-26T02:05:29.898Z,95117.00
2023-06-26T02:06:29.917Z,95119.00
2023-06-26T02:07:29.957Z,95121.00
2023-06-26T02:08:29.917Z,95119.00
2023-06-26T02:09:29.928Z,95119.00
2023-06-26T02:10:29.939Z,95121.00
2023-06-26T02:11:29.917Z,95123.00
2023-06-26T02:12:29.956Z,95121.00
2023-06-26T02:13:29.956Z,95121.00
2023-06-26T02:14:29.975Z,95121.00
2023-06-26T02:15:29.970Z,95123.00
2023-06-26T02:16:29.973Z,95125.00
2023-06-26T02:17:30.003Z,95125.00
2023-06-26T02:18:29.961Z,95129.00
2023-06-26T02:19:29.969Z,95127.00
2023-06-26T02:20:30.041Z,95131.00
2023-06-26T02:21:30.003Z,95131.00
2023-06-26T02:22:30.049Z,95131.00
2023-06-26T02:23:30.056Z,95131.00
2023-06-26T02:24:30.036Z,95131.00
2023-06-26T02:25:30.781Z,95131.00
2023-06-26T02:26:30.061Z,95133.00
2023-06-26T02:27:30.098Z,95133.00
2023-06-26T02:28:30.057Z,95131.00
2023-06-26T02:29:30.074Z,95133.00
2023-06-26T02:30:30.073Z,95131.00
2023-06-26T02:31:30.108Z,95129.00
2023-06-26T02:32:30.129Z,95131.00
2023-06-26T02:33:30.189Z,95129.00
2023-06-26T02:34:30.201Z,95131.00
2023-06-26T02:35:30.251Z,95135.00
2023-06-26T02:36:30.315Z,95131.00
2023-06-26T02:37:30.311Z,95131.00
2023-06-26T02:38:30.288Z,95129.00
2023-06-26T02:39:30.334Z,95131.00
2023-06-26T02:40:30.306Z,95133.00
2023-06-26T02:41:30.344Z,95131.00
2023-06-26T02:42:30.365Z,95133.00
2023-06-26T02:43:30.401Z,95137.00
2023-06-26T02:44:30.409Z,95137.00
2023-06-26T02:45:30.435Z,95137.00
2023-06-26T02:46:30.495Z,95138.00
2023-06-26T02:47:30.508Z,95135.00
2023-06-26T02:48:30.444Z,95137.00
2023-06-26T02:49:30.482Z,95137.00
2023-06-26T02:50:30.496Z,95137.00
2023-06-26T02:51:30.873Z,95137.00
2023-06-26T02:52:30.496Z,95137.00
2023-06-26T02:53:30.541Z,95138.00
2023-06-26T02:54:30.504Z,95142.00
2023-06-26T02:55:30.550Z,95138.00
2023-06-26T02:56:30.552Z,95138.00
2023-06-26T02:57:30.554Z,95138.00
2023-06-26T02:58:30.553Z,95135.00
2023-06-26T02:59:30.546Z,95135.00
2023-06-26T03:00:30.610Z,95137.00
2023-06-26T03:01:30.709Z,95140.00
2023-06-26T03:02:30.635Z,95140.00
2023-06-26T03:03:30.623Z,95137.00
2023-06-26T03:04:30.710Z,95140.00
2023-06-26T03:05:30.670Z,95138.00
2023-06-26T03:06:30.673Z,95138.00
2023-06-26T03:07:30.686Z,95138.00
2023-06-26T03:08:30.717Z,95137.00
2023-06-26T03:09:30.740Z,95137.00
2023-06-26T03:10:30.798Z,95137.00
2023-06-26T03:11:30.821Z,95135.00
2023-06-26T03:12:30.865Z,95138.00
2023-06-26T03:13:30.914Z,95140.00
2023-06-26T03:14:30.924Z,95138.00
2023-06-26T03:15:30.984Z,95138.00
2023-06-26T03:16:31.056Z,95140.00
2023-06-26T03:17:31.075Z,95140.00
2023-06-26T03:18:31.157Z,95140.00
2023-06-26T03:19:31.140Z,95144.00
2023-06-26T03:20:31.149Z,95142.00
2023-06-26T03:21:31.192Z,95140.00
2023-06-26T03:22:31.184Z,95144.00
2023-06-26T03:23:31.165Z,95142.00
2023-06-26T03:24:31.199Z,95142.00
2023-06-26T03:25:31.235Z,95140.00
2023-06-26T03:26:31.310Z,95142.00
2023-06-26T03:27:31.353Z,95142.00
2023-06-26T03:28:31.402Z,95144.00
2023-06-26T03:29:31.411Z,95150.00
2023-06-26T03:30:31.489Z,95150.00
2023-06-26T03:31:31.481Z,95148.00
2023-06-26T03:32:31.486Z,95150.00
2023-06-26T03:33:31.515Z,95150.00
2023-06-26T03:34:31.477Z,95148.00
2023-06-26T03:35:31.536Z,95148.00
2023-06-26T03:36:31.520Z,95146.00
2023-06-26T03:37:31.517Z,95150.00
2023-06-26T03:38:31.575Z,95148.00
2023-06-26T03:39:31.622Z,95148.00
2023-06-26T03:40:31.584Z,95148.00
2023-06-26T03:41:31.589Z,95150.00
2023-06-26T03:42:31.599Z,95150.00
2023-06-26T03:43:31.583Z,95148.00
2023-06-26T03:44:31.601Z,95148.00
2023-06-26T03:45:31.581Z,95150.00
2023-06-26T03:46:31.658Z,95152.00
2023-06-26T03:47:31.663Z,95152.00
2023-06-26T03:48:31.624Z,95154.00
2023-06-26T03:49:31.635Z,95154.00
2023-06-26T03:50:31.645Z,95154.00
2023-06-26T03:51:31.711Z,95156.00
2023-06-26T03:52:31.783Z,95154.00
2023-06-26T03:53:31.823Z,95156.00
2023-06-26T03:54:31.869Z,95152.00
2023-06-26T03:55:31.914Z,95152.00
2023-06-26T03:56:31.983Z,95158.00
2023-06-26T03:57:32.000Z,95156.00
2023-06-26T03:58:32.023Z,95160.00
2023-06-26T03:59:32.115Z,95158.00
2023-06-26T04:00:32.156Z,95158.00
2023-06-26T04:01:32.243Z,95158.00
2023-06-26T04:02:32.276Z,95150.00
2023-06-26T04:03:32.324Z,95156.00
2023-06-26T04:04:32.294Z,95156.00
2023-06-26T04:05:32.361Z,95154.00
2023-06-26T04:06:32.340Z,95154.00
2023-06-26T04:07:32.431Z,95148.00
2023-06-26T04:08:32.380Z,95152.00
2023-06-26T04:09:32.421Z,95150.00
2023-06-26T04:10:32.445Z,95150.00
2023-06-26T04:11:32.505Z,95148.00
2023-06-26T04:12:32.592Z,95150.00
2023-06-26T04:13:32.621Z,95148.00
2023-06-26T04:14:32.643Z,95154.00
2023-06-26T04:15:32.676Z,95154.00
2023-06-26T04:16:32.708Z,95158.00
2023-06-26T04:17:32.808Z,95154.00
2023-06-26T04:18:32.779Z,95158.00
2023-06-26T04:19:33.560Z,95150.00
2023-06-26T04:20:32.802Z,95152.00
2023-06-26T04:21:32.829Z,95154.00
2023-06-26T04:22:32.819Z,95154.00
2023-06-26T04:23:32.828Z,95154.00
2023-06-26T04:24:32.881Z,95154.00
2023-06-26T04:25:32.925Z,95158.00
2023-06-26T04:26:33.012Z,95156.00
2023-06-26T04:27:35.170Z,95158.00
2023-06-26T04:28:32.983Z,95158.00
2023-06-26T04:29:32.963Z,95154.00
2023-06-26T04:30:33.007Z,95115.00
2023-06-26T04:31:33.055Z,95133.00
2023-06-26T04:32:33.020Z,95137.00
2023-06-26T04:33:32.935Z,95140.00
2023-06-26T04:34:32.949Z,95144.00
2023-06-26T04:35:32.903Z,95142.00
2023-06-26T04:36:32.910Z,95144.00
2023-06-26T04:37:32.923Z,95146.00
2023-06-26T04:38:32.891Z,95146.00
2023-06-26T04:39:32.886Z,95146.00
2023-06-26T04:40:32.907Z,95146.00
2023-06-26T04:41:32.862Z,95150.00
2023-06-26T04:42:32.913Z,95146.00
2023-06-26T04:43:32.885Z,95146.00
2023-06-26T04:44:32.945Z,95144.00
2023-06-26T04:45:32.916Z,95142.00
2023-06-26T04:46:32.885Z,95142.00
2023-06-26T04:47:32.950Z,95138.00
2023-06-26T04:48:32.861Z,95135.00
2023-06-26T04:49:32.856Z,95137.00
2023-06-26T04:50:32.845Z,95138.00
2023-06-26T04:51:32.809Z,95076.00
2023-06-26T04:52:32.817Z,95078.00
2023-06-26T04:53:32.833Z,95072.00
2023-06-26T04:54:32.820Z,95070.00
2023-06-26T04:55:32.776Z,95074.00
2023-06-26T04:56:32.811Z,95074.00
2023-06-26T04:57:32.816Z,95070.00
2023-06-26T04:58:32.799Z,95072.00
2023-06-26T04:59:32.783Z,95142.00
2023-06-26T05:00:32.771Z,95146.00
2023-06-26T05:01:32.804Z,95144.00
2023-06-26T05:02:32.889Z,95144.00
2023-06-26T05:03:32.869Z,95150.00
2023-06-26T05:04:32.750Z,95146.00
2023-06-26T05:05:32.759Z,95146.00
2023-06-26T05:06:32.733Z,95146.00
2023-06-26T05:07:32.728Z,95148.00
2023-06-26T05:08:32.738Z,95148.00
2023-06-26T05:09:32.713Z,95146.00
2023-06-26T05:10:32.700Z,95144.00
2023-06-26T05:11:32.713Z,95144.00
2023-06-26T05:12:32.695Z,95142.00
2023-06-26T05:13:32.685Z,95142.00
2023-06-26T05:14:32.660Z,95142.00
2023-06-26T05:15:32.677Z,95144.00
2023-06-26T05:16:32.670Z,95142.00
2023-06-26T05:17:32.665Z,95142.00
2023-06-26T05:18:32.664Z,95142.00
2023-06-26T05:19:32.658Z,95144.00
2023-06-26T05:20:32.635Z,95142.00
2023-06-26T05:21:32.683Z,95138.00
2023-06-26T05:22:32.611Z,95138.00
2023-06-26T05:23:32.624Z,95140.00
2023-06-26T05:24:32.641Z,95142.00
2023-06-26T05:25:32.593Z,95138.00
2023-06-26T05:26:32.607Z,95140.00
2023-06-26T05:27:32.610Z,95138.00
2023-06-26T05:28:32.563Z,95138.00
2023-06-26T05:29:32.594Z,95138.00
2023-06-26T05:30:32.575Z,95138.00
2023-06-26T05:31:32.711Z,95137.00
2023-06-26T05:32:32.700Z,95137.00
2023-06-26T05:33:32.711Z,95135.00
2023-06-26T05:34:32.794Z,95137.00
2023-06-26T05:35:32.915Z,95135.00
2023-06-26T05:36:32.992Z,95133.00
2023-06-26T05:37:32.943Z,95131.00
2023-06-26T05:38:32.966Z,95133.00
2023-06-26T05:39:33.041Z,95133.00
2023-06-26T05:40:33.120Z,95133.00
2023-06-26T05:41:33.074Z,95135.00
2023-06-26T05:42:33.128Z,95135.00
2023-06-26T05:43:33.186Z,95131.00
2023-06-26T05:44:33.190Z,95133.00
2023-06-26T05:45:33.311Z,95129.00
2023-06-26T05:46:33.294Z,95131.00
2023-06-26T05:47:33.490Z,95131.00
2023-06-26T05:48:33.471Z,95131.00
2023-06-26T05:49:33.399Z,95131.00
2023-06-26T05:50:33.440Z,95131.00
2023-06-26T05:51:33.500Z,95127.00
2023-06-26T05:52:34.365Z,95127.00
2023-06-26T05:53:33.613Z,95129.00
2023-06-26T05:54:33.642Z,95127.00
2023-06-26T05:55:33.625Z,95131.00
2023-06-26T05:56:33.884Z,95129.00
2023-06-26T05:57:33.895Z,95131.00
2023-06-26T05:58:33.752Z,95129.00
2023-06-26T05:59:33.771Z,95131.00
2023-06-26T06:00:33.797Z,95131.00
2023-06-26T06:01:33.905Z,95133.00
2023-06-26T06:02:33.903Z,95131.00
2023-06-26T06:03:33.910Z,95129.00
2023-06-26T06:04:33.841Z,95133.00
2023-06-26T06:05:33.907Z,95127.00
2023-06-26T06:06:33.912Z,95129.00
2023-06-26T06:07:33.961Z,95127.00
2023-06-26T06:08:33.922Z,95127.00
2023-06-26T06:09:33.871Z,95127.00
2023-06-26T06:10:33.858Z,95129.00
2023-06-26T06:11:33.877Z,95129.00
2023-06-26T06:12:33.894Z,95127.00
2023-06-26T06:13:33.899Z,95125.00
2023-06-26T06:14:33.975Z,95127.00
2023-06-26T06:15:33.981Z,95123.00
2023-06-26T06:16:33.927Z,95123.00
2023-06-26T06:17:33.965Z,95127.00
2023-06-26T06:18:33.933Z,95125.00
2023-06-26T06:19:33.932Z,95129.00
2023-06-26T06:20:33.962Z,95127.00
2023-06-26T06:21:34.017Z,95123.00
2023-06-26T06:22:33.962Z,95125.00
2023-06-26T06:23:33.991Z,95121.00
2023-06-26T06:24:33.933Z,95119.00
2023-06-26T06:25:33.956Z,95123.00
2023-06-26T06:26:33.992Z,95119.00
2023-06-26T06:27:33.969Z,95123.00
2023-06-26T06:28:34.023Z,95123.00
2023-06-26T06:29:34.028Z,95123.00
2023-06-26T06:31:34.521Z,95119.00
2023-06-26T06:32:34.115Z,95119.00
2023-06-26T06:33:34.018Z,95117.00
2023-06-26T06:34:34.054Z,95119.00
2023-06-26T06:35:33.993Z,95117.00
2023-06-26T06:36:34.483Z,95117.00
2023-06-26T06:37:33.969Z,95115.00
2023-06-26T06:38:34.026Z,95115.00
2023-06-26T06:39:34.020Z,95115.00
2023-06-26T06:40:33.964Z,95115.00
2023-06-26T06:41:36.565Z,95111.00
2023-06-26T06:42:33.982Z,95111.00
2023-06-26T06:43:33.963Z,95109.00
2023-06-26T06:44:33.956Z,95111.00
2023-06-26T06:45:33.971Z,95109.00
2023-06-26T06:46:33.940Z,95109.00
2023-06-26T06:47:34.074Z,95109.00
2023-06-26T06:48:33.911Z,95109.00
2023-06-26T06:49:33.942Z,95109.00
2023-06-26T06:50:33.947Z,95105.00
2023-06-26T06:51:33.894Z,95105.00
2023-06-26T06:52:33.919Z,95103.00
2023-06-26T06:53:33.921Z,95105.00
2023-06-26T06:54:33.897Z,95105.00
2023-06-26T06:55:33.882Z,95107.00
2023-06-26T06:56:33.876Z,95105.00
2023-06-26T06:57:33.891Z,95103.00
2023-06-26T06:58:33.848Z,95101.00
2023-06-26T06:59:33.868Z,95101.00
2023-06-26T07:00:33.898Z,95103.00
2023-06-26T07:01:33.917Z,95101.00
2023-06-26T07:02:33.925Z,95101.00
2023-06-26T07:03:34.068Z,95099.00
2023-06-26T07:04:33.866Z,95095.00
2023-06-26T07:05:33.846Z,95097.00
2023-06-26T07:06:33.809Z,95093.00
2023-06-26T07:07:33.873Z,95091.00
2023-06-26T07:08:33.772Z,95093.00
2023-06-26T07:09:33.864Z,95095.00
2023-06-26T07:10:33.845Z,95093.00
2023-06-26T07:11:33.780Z,95095.00
2023-06-26T07:12:34.015Z,95095.00
2023-06-26T07:13:33.759Z,95097.00
2023-06-26T07:14:33.789Z,95097.00
2023-06-26T07:15:33.743Z,95099.00
2023-06-26T07:16:33.805Z,95093.00
2023-06-26T07:17:34.286Z,95093.00
2023-06-26T07:18:33.723Z,95093.00
2023-06-26T07:19:33.694Z,95091.00
2023-06-26T07:20:33.688Z,95093.00
2023-06-26T07:21:33.696Z,95091.00
2023-06-26T07:22:33.769Z,95090.00
2023-06-26T07:23:33.728Z,95091.00
2023-06-26T07:24:33.969Z,95088.00
2023-06-26T07:25:33.689Z,95088.00
2023-06-26T07:26:44.678Z,95084.00
2023-06-26T07:27:34.690Z,95082.00
2023-06-26T07:28:33.655Z,95086.00
2023-06-26T07:29:33.666Z,95084.00
2023-06-26T07:30:33.673Z,95082.00
2023-06-26T07:31:33.732Z,95080.00
2023-06-26T07:32:33.669Z,95082.00
2023-06-26T07:33:33.597Z,95078.00
2023-06-26T07:34:33.636Z,95080.00
2023-06-26T07:35:33.596Z,95076.00
2023-06-26T07:36:33.608Z,95076.00
2023-06-26T07:37:33.611Z,95074.00
2023-06-26T07:38:33.632Z,95074.00
2023-06-26T07:39:33.555Z,95076.00
2023-06-26T07:40:33.689Z,95080.00
2023-06-26T07:41:33.546Z,95076.00
2023-06-26T07:42:33.532Z,95076.00
2023-06-26T07:43:33.544Z,95074.00
2023-06-26T07:44:33.515Z,95070.00
2023-06-26T07:45:33.544Z,95072.00
2023-06-26T07:46:33.546Z,95070.00
2023-06-26T07:47:33.516Z,95070.00
2023-06-26T07:48:33.521Z,95068.00
2023-06-26T07:49:33.483Z,95064.00
2023-06-26T07:50:33.491Z,95062.00
2023-06-26T07:51:33.503Z,95060.00
2023-06-26T07:52:33.517Z,95060.00
2023-06-26T07:53:33.525Z,95062.00
2023-06-26T07:54:33.496Z,95062.00
2023-06-26T07:55:33.490Z,95064.00
2023-06-26T07:56:33.482Z,95062.00
2023-06-26T07:57:33.487Z,95060.00
2023-06-26T07:58:33.488Z,95058.00
2023-06-26T07:59:33.527Z,95060.00
2023-06-26T08:00:33.488Z,95060.00
2023-06-26T08:01:33.507Z,95060.00
2023-06-26T08:02:33.534Z,95060.00
2023-06-26T08:03:35.447Z,95058.00
2023-06-26T08:04:34.016Z,95056.00
2023-06-26T08:05:33.979Z,95054.00
2023-06-26T08:06:33.767Z,95056.00
2023-06-26T08:07:33.844Z,95056.00
2023-06-26T08:08:33.798Z,95056.00
2023-06-26T08:09:33.799Z,95056.00
2023-06-26T08:10:33.850Z,95054.00
2023-06-26T08:11:33.836Z,95058.00
2023-06-26T08:12:33.936Z,95058.00
2023-06-26T08:13:33.880Z,95058.00
2023-06-26T08:14:33.966Z,95056.00
2023-06-26T08:15:33.980Z,95054.00
2023-06-26T08:16:33.973Z,95052.00
2023-06-26T08:17:34.055Z,95052.00
2023-06-26T08:18:34.057Z,95052.00
2023-06-26T08:19:34.046Z,95052.00
2023-06-26T08:20:34.056Z,95048.00
2023-06-26T08:21:34.085Z,95048.00
2023-06-26T08:22:34.085Z,95048.00
2023-06-26T08:23:34.056Z,95044.00
2023-06-26T08:24:34.066Z,95041.00
2023-06-26T08:25:34.039Z,95041.00
2023-06-26T08:26:34.047Z,95041.00
2023-06-26T08:27:34.093Z,95044.00
2023-06-26T08:28:34.552Z,95043.00
2023-06-26T08:29:34.170Z,95043.00
2023-06-26T08:30:34.186Z,95041.00
2023-06-26T08:31:34.352Z,95039.00
2023-06-26T08:32:34.304Z,95039.00
2023-06-26T08:33:34.295Z,95033.00
2023-06-26T08:34:34.360Z,95033.00
2023-06-26T08:35:34.436Z,95027.00
2023-06-26T08:36:34.476Z,95031.00
2023-06-26T08:37:34.540Z,95031.00
2023-06-26T08:38:34.592Z,95029.00
2023-06-26T08:39:34.615Z,95029.00
2023-06-26T08:40:34.670Z,95027.00
2023-06-26T08:41:34.720Z,95025.00
2023-06-26T08:42:34.752Z,95027.00
2023-06-26T08:43:34.790Z,95025.00
2023-06-26T08:45:35.069Z,95025.00
2023-06-26T08:46:35.088Z,95025.00
2023-06-26T08:47:35.049Z,95025.00
2023-06-26T08:48:35.069Z,95027.00
2023-06-26T08:49:35.096Z,95027.00
2023-06-26T08:50:35.153Z,95025.00
2023-06-26T08:51:35.283Z,95025.00
2023-06-26T08:52:36.122Z,95021.00
2023-06-26T08:53:35.366Z,95015.00
2023-06-26T08:54:35.390Z,95009.00
2023-06-26T08:55:35.451Z,95009.00
2023-06-26T08:56:35.446Z,95007.00
2023-06-26T08:57:35.528Z,95007.00
2023-06-26T08:58:35.546Z,95003.00
2023-06-26T08:59:35.617Z,95001.00
2023-06-26T09:00:35.721Z,95001.00
2023-06-26T09:01:35.712Z,95001.00
2023-06-26T09:02:35.777Z,94999.00
2023-06-26T09:03:35.872Z,94996.00
2023-06-26T09:04:35.780Z,94994.00
2023-06-26T09:05:35.807Z,94994.00
2023-06-26T09:06:35.872Z,94996.00
2023-06-26T09:07:35.910Z,94994.00
2023-06-26T09:08:35.920Z,94988.00
2023-06-26T09:09:35.920Z,94986.00
2023-06-26T09:10:36.210Z,94982.00
2023-06-26T09:11:36.017Z,94984.00
2023-06-26T09:12:36.070Z,94980.00
2023-06-26T09:13:36.129Z,94986.00
2023-06-26T09:14:36.143Z,94986.00
2023-06-26T09:15:36.230Z,94984.00
2023-06-26T09:16:36.515Z,94986.00
2023-06-26T09:17:36.315Z,94988.00
2023-06-26T09:18:36.518Z,94986.00
2023-06-26T09:19:37.297Z,94984.00
2023-06-26T09:20:36.412Z,94984.00
2023-06-26T09:21:36.475Z,94980.00
2023-06-26T09:22:36.441Z,94980.00
2023-06-26T09:23:36.566Z,94978.00
2023-06-26T09:24:36.565Z,94980.00
2023-06-26T09:25:36.612Z,94978.00
2023-06-26T09:26:36.713Z,94976.00
2023-06-26T09:27:36.795Z,94974.00
2023-06-26T09:28:36.850Z,94972.00
2023-06-26T09:29:36.803Z,94970.00
2023-06-26T09:30:37.527Z,94966.00
2023-06-26T09:31:41.953Z,94968.00
2023-06-26T09:32:38.112Z,94968.00
2023-06-26T09:33:36.925Z,94968.00
2023-06-26T09:34:36.943Z,94962.00
2023-06-26T09:35:36.894Z,94962.00
2023-06-26T09:36:39.779Z,94964.00
2023-06-26T09:37:36.897Z,94970.00
2023-06-26T09:38:37.091Z,94966.00
2023-06-26T09:39:36.918Z,94966.00
2023-06-26T09:40:37.305Z,94964.00
2023-06-26T09:41:36.865Z,94960.00
2023-06-26T09:42:36.838Z,94960.00
2023-06-26T09:43:37.520Z,94958.00
2023-06-26T09:44:36.820Z,94956.00
2023-06-26T09:45:36.903Z,94956.00
2023-06-26T09:46:36.870Z,94954.00
2023-06-26T09:47:36.858Z,94954.00
2023-06-26T09:48:36.886Z,94954.00
2023-06-26T09:49:36.780Z,94952.00
2023-06-26T09:50:36.873Z,94950.00
2023-06-26T09:51:36.757Z,94949.00
2023-06-26T09:52:36.793Z,94945.00
2023-06-26T09:53:36.812Z,94947.00
2023-06-26T09:54:36.756Z,94947.00
2023-06-26T09:55:36.798Z,94945.00
2023-06-26T09:56:36.774Z,94943.00
2023-06-26T09:57:36.714Z,94945.00
2023-06-26T09:58:36.749Z,94939.00
2023-06-26T09:59:36.721Z,94939.00
2023-06-26T10:00:37.213Z,94945.00
2023-06-26T10:01:36.837Z,94943.00
2023-06-26T10:02:36.776Z,94941.00
2023-06-26T10:03:37.557Z,94941.00
2023-06-26T10:04:36.949Z,94937.00
2023-06-26T10:05:36.690Z,94935.00
2023-06-26T10:06:36.635Z,94933.00
2023-06-26T10:07:36.729Z,94933.00
2023-06-26T10:08:36.638Z,94931.00
2023-06-26T10:09:36.635Z,94927.00
2023-06-26T10:10:37.803Z,94925.00
2023-06-26T10:11:36.688Z,94923.00
2023-06-26T10:12:36.652Z,94923.00
2023-06-26T10:13:36.639Z,94919.00
2023-06-26T10:14:36.642Z,94921.00
2023-06-26T10:15:36.655Z,94917.00
2023-06-26T10:16:36.595Z,94917.00
2023-06-26T10:17:36.658Z,94915.00
2023-06-26T10:18:36.612Z,94915.00
2023-06-26T10:19:36.562Z,94913.00
2023-06-26T10:20:36.848Z,94915.00
2023-06-26T10:21:36.612Z,94913.00
2023-06-26T10:22:36.614Z,94911.00
2023-06-26T10:23:36.570Z,94904.00
2023-06-26T10:24:36.534Z,94902.00
2023-06-26T10:25:36.544Z,94902.00
2023-06-26T10:26:36.517Z,94902.00
2023-06-26T10:27:36.530Z,94900.00
2023-06-26T10:28:36.554Z,94900.00
2023-06-26T10:29:36.574Z,94898.00
2023-06-26T10:30:36.818Z,94896.00
2023-06-26T10:31:36.578Z,94896.00
2023-06-26T10:32:36.503Z,94896.00
2023-06-26T10:33:36.570Z,94894.00
2023-06-26T10:34:36.523Z,94894.00
2023-06-26T10:35:36.509Z,94896.00
2023-06-26T10:36:36.713Z,94896.00
2023-06-26T10:37:36.597Z,94894.00
2023-06-26T10:38:36.650Z,94894.00
2023-06-26T10:39:36.637Z,94888.00
2023-06-26T10:40:36.905Z,94890.00
2023-06-26T10:41:36.726Z,94890.00
2023-06-26T10:42:36.726Z,94882.00
2023-06-26T10:43:36.833Z,94882.00
2023-06-26T10:44:36.845Z,94884.00
2023-06-26T10:45:36.843Z,94884.00
2023-06-26T10:46:36.896Z,94882.00
2023-06-26T10:47:36.948Z,94882.00
2023-06-26T10:48:36.982Z,94876.00
2023-06-26T10:49:36.980Z,94872.00
2023-06-26T10:50:37.026Z,94878.00
2023-06-26T10:51:36.982Z,94876.00
2023-06-26T10:52:37.011Z,94872.00
2023-06-26T10:53:37.013Z,94874.00
2023-06-26T10:54:36.977Z,94870.00
2023-06-26T10:55:36.959Z,94870.00
2023-06-26T10:56:37.010Z,94870.00
2023-06-26T10:57:37.075Z,94868.00
2023-06-26T10:58:37.024Z,94866.00
2023-06-26T10:59:37.062Z,94864.00
2023-06-26T11:00:37.122Z,94862.00
2023-06-26T11:01:37.117Z,94864.00
2023-06-26T11:02:37.044Z,94864.00
2023-06-26T11:03:37.081Z,94862.00
2023-06-26T11:04:37.144Z,94862.00
2023-06-26T11:05:37.099Z,94858.00
2023-06-26T11:06:37.103Z,94858.00
2023-06-26T11:07:37.154Z,94855.00
2023-06-26T11:08:37.150Z,94855.00
2023-06-26T11:09:37.171Z,94857.00
2023-06-26T11:10:37.514Z,94853.00
2023-06-26T11:11:37.357Z,94853.00
2023-06-26T11:12:37.281Z,94857.00
2023-06-26T11:13:37.325Z,94853.00
2023-06-26T11:14:37.414Z,94851.00
2023-06-26T11:15:37.420Z,94851.00
2023-06-26T11:16:37.413Z,94851.00
2023-06-26T11:17:37.446Z,94849.00
2023-06-26T11:18:37.502Z,94849.00
2023-06-26T11:19:37.505Z,94845.00
2023-06-26T11:20:37.892Z,94843.00
2023-06-26T11:21:37.622Z,94845.00
2023-06-26T11:22:37.639Z,94843.00
2023-06-26T11:23:37.862Z,94845.00
2023-06-26T11:24:37.622Z,94847.00
2023-06-26T11:25:37.650Z,94851.00
2023-06-26T11:26:37.660Z,94849.00
2023-06-26T11:27:37.787Z,94847.00
2023-06-26T11:28:37.679Z,94849.00
2023-06-26T11:29:37.652Z,94851.00
2023-06-26T11:30:37.933Z,94847.00
2023-06-26T11:31:37.751Z,94845.00
2023-06-26T11:32:37.807Z,94845.00
2023-06-26T11:33:37.810Z,94843.00
2023-06-26T11:34:37.816Z,94843.00
2023-06-26T11:35:37.857Z,94839.00
2023-06-26T11:36:37.903Z,94835.00
2023-06-26T11:37:37.954Z,94839.00
2023-06-26T11:38:37.914Z,94835.00
2023-06-26T11:39:37.950Z,94835.00
2023-06-26T11:40:38.501Z,94837.00
2023-06-26T11:41:37.991Z,94839.00
2023-06-26T11:42:37.997Z,94837.00
2023-06-26T11:43:38.057Z,94833.00
2023-06-26T11:44:38.081Z,94831.00
2023-06-26T11:45:38.129Z,94831.00
2023-06-26T11:46:38.175Z,94833.00